ESSD/BLE METAR and TAF weather

Enter ICAO airport designator
Station Type Date Time Source
ESSD METAR 2020/06/01 15:50 UTC NOAA

ESSD 011550Z AUTO 28004KT 220V340 9999 NCD 27/06 Q1023


Station Type Date Time Source
ESSD Decoded METAR 2020/06/01 15:50 UTC NOAA

Borlange, Sweden (ESSD) 60-26N 015-31E 0M
Jun 01, 2020 - 11:50 AM EDT / 2020.06.01 1550 UTC
Wind: from the W (280 degrees) at 5 MPH (4 KT) (direction variable):0
Visibility: greater than 7 mile(s):0
Temperature: 80 F (27 C)
Dew Point: 42 F (6 C)
Relative Humidity: 26%
Pressure (altimeter): 30.21 in. Hg (1023 hPa)
ob: ESSD 011550Z AUTO 28004KT 220V340 9999 NCD 27/06 Q1023
cycle: 16

Station Type Date Time Source
ESSD TAF 2018/05/02 04:48 UTC NOAA

TAF TAF ESSD 020320Z 0204/0412 27008KT 9999 BKN019 PROB40 0204/0209 BKN006

Example: see airport list